Time;durP1;ratioP1;P1;durP2;ratioP2;P2;SDS_P1;SDS_P2;PMS_P1;PMS_P2;Temp;Humidity;BMP_temperature;BMP_pressure;BME280_temperature;BME280_humidity;BME280_pressure;Samples;Min_cycle;Max_cycle;Signal;HPM_P1;HPM_P2
2021/04/08 00:00:12;;;;;;;1.70;1.52;;;;;;;3.74;56.53;101272.56;4858676;29;20025;-78
2021/04/08 00:02:43;;;;;;;1.27;1.17;;;;;;;3.72;56.49;101253.84;4874118;29;20088;-75
2021/04/08 00:05:12;;;;;;;1.58;1.27;;;;;;;3.81;55.87;101266.19;4859785;29;20033;-76
2021/04/08 00:07:50;;;;;;;;;;;;;;;;;;;;;
2021/04/08 00:10:28;;;;;;;;;;;;;;;;;;;;;
2021/04/08 00:13:07;;;;;;;6.68;1.67;;;;;;;4.02;56.06;101267.09;4876745;29;21722;-77
2021/04/08 00:15:42;;;;;;;5.18;2.10;;;;;;;4.12;56.79;101285.69;4844956;29;20037;-78
2021/04/08 00:18:18;;;;;;;17.40;5.28;;;;;;;4.04;57.18;101261.47;4874040;29;20033;-79
2021/04/08 00:20:54;;;;;;;;;;;;;;;;;;;;;
2021/04/08 00:23:20;;;;;;;13.43;4.57;;;;;;;4.19;57.50;101278.38;4873075;29;20029;-76
2021/04/08 00:25:45;;;;;;;9.55;3.90;;;;;;;4.17;57.04;101277.78;4847939;29;20037;-79
2021/04/08 00:28:11;;;;;;;7.63;5.30;;;;;;;4.16;57.38;101276.09;4860094;29;20057;-76
2021/04/08 00:30:45;;;;;;;23.45;5.18;;;;;;;4.16;58.13;101265.25;4875882;29;20043;-75
2021/04/08 00:33:16;;;;;;;3.70;3.40;;;;;;;4.18;57.68;101274.84;4876084;29;20021;-76
2021/04/08 00:35:42;;;;;;;6.38;2.95;;;;;;;4.18;57.98;101263.22;4872797;29;20041;-76
2021/04/08 00:38:08;;;;;;;4.72;2.67;;;;;;;4.25;58.50;101280.31;4869559;29;20033;-77
2021/04/08 00:40:50;;;;;;;4.72;3.03;;;;;;;4.06;58.70;101244.00;4854144;29;20035;-79
2021/04/08 00:43:20;;;;;;;5.40;3.28;;;;;;;4.07;58.08;101244.84;4863212;29;20072;-77
2021/04/08 00:45:50;;;;;;;5.70;3.13;;;;;;;4.03;59.01;101241.72;4857201;29;20425;-76
2021/04/08 00:48:23;;;;;;;4.35;3.22;;;;;;;4.12;58.77;101258.63;4877413;29;20033;-77
2021/04/08 00:50:49;;;;;;;4.65;3.22;;;;;;;3.98;59.21;101245.00;4864224;29;20059;-74
2021/04/08 00:53:21;;;;;;;2.17;1.80;;;;;;;4.05;59.50;101247.75;4879273;29;20044;-77
2021/04/08 00:56:08;;;;;;;;;;;;;;;;;;;;;
2021/04/08 00:58:45;;;;;;;3.38;1.35;;;;;;;3.93;59.56;101236.66;4888388;29;20080;-77
2021/04/08 01:01:11;;;;;;;3.97;2.00;;;;;;;4.11;59.19;101267.75;4874946;29;20025;-77
2021/04/08 01:03:37;;;;;;;1.50;1.40;;;;;;;3.99;59.63;101243.97;4864092;29;20036;-78
2021/04/08 01:06:06;;;;;;;3.92;1.77;;;;;;;4.05;58.26;101244.22;4872732;29;20029;-78
2021/04/08 01:08:42;;;;;;;4.18;1.90;;;;;;;4.01;59.22;101246.47;4873569;29;20184;-78
2021/04/08 01:11:42;;;;;;;1.80;1.70;;;;;;;4.02;59.29;101262.50;4875297;29;20037;-78
2021/04/08 01:14:17;;;;;;;8.00;2.17;;;;;;;3.94;59.38;101251.88;4869293;29;20036;-79
2021/04/08 01:17:05;;;;;;;1.70;1.60;;;;;;;4.07;59.14;101266.50;4882154;29;20040;-78
2021/04/08 01:20:18;;;;;;;8.65;1.45;;;;;;;4.06;59.02;101270.22;4861535;29;20025;-79
2021/04/08 01:23:20;;;;;;;2.65;2.45;;;;;;;4.00;59.23;101271.88;4844794;29;20036;-78
2021/04/08 01:26:49;;;;;;;9.10;2.42;;;;;;;3.98;59.16;101269.34;4858165;29;20468;-79
2021/04/08 01:29:49;;;;;;;6.70;2.25;;;;;;;3.96;60.08;101271.44;4867007;29;20084;-77
2021/04/08 01:32:26;;;;;;;8.48;2.10;;;;;;;3.88;60.45;101263.47;4855174;29;20069;-77
2021/04/08 01:35:03;;;;;;;2.08;1.88;;;;;;;3.97;59.99;101273.13;4859363;29;20487;-77
2021/04/08 01:38:00;;;;;;;6.18;2.40;;;;;;;3.86;60.62;101243.09;4870953;29;20089;-77
2021/04/08 01:40:27;;;;;;;2.72;2.08;;;;;;;4.00;59.92;101261.88;4857511;29;20094;-78
2021/04/08 01:43:17;;;;;;;;;;;;;;;;;;;;;
2021/04/08 01:46:03;;;;;;;4.05;1.60;;;;;;;4.09;59.98;101259.00;4878033;29;20029;-77
2021/04/08 01:48:55;;;;;;;2.78;1.58;;;;;;;3.99;59.63;101243.97;4857820;29;20036;-77
2021/04/08 01:51:39;;;;;;;1.40;1.30;;;;;;;4.00;60.06;101237.53;4868516;29;20041;-78
2021/04/08 01:54:40;;;;;;;;;;;;;;;;;;;;;
2021/04/08 01:57:51;;;;;;;3.33;1.35;;;;;;;3.92;59.41;101224.16;4873080;29;20175;-79
2021/04/08 02:00:23;;;;;;;1.48;1.27;;;;;;;3.97;59.97;101235.22;4884179;29;20468;-82
2021/04/08 02:03:36;;;;;;;3.78;1.05;;;;;;;4.07;59.12;101245.66;4875833;29;20093;-78
2021/04/08 02:06:06;;;;;;;2.47;0.95;;;;;;;3.98;59.11;101219.81;4864193;29;20311;-79
2021/04/08 02:08:55;;;;;;;1.13;0.75;;;;;;;4.08;58.85;101243.81;4866525;29;20047;-77
2021/04/08 02:11:35;;;;;;;;;;;;;;;;;;;;;
2021/04/08 02:14:01;;;;;;;3.88;2.33;;;;;;;4.11;59.48;101240.69;4877109;29;20544;-76
2021/04/08 02:16:55;;;;;;;5.55;3.30;;;;;;;3.89;59.66;101219.16;4855537;29;20069;-75
2021/04/08 02:19:25;;;;;;;4.05;3.00;;;;;;;3.83;60.11;101206.44;4854988;29;20037;-76
2021/04/08 02:21:54;;;;;;;2.42;2.20;;;;;;;4.04;60.28;101235.25;4852572;29;20060;-75
2021/04/08 02:24:29;;;;;;;3.88;2.40;;;;;;;3.95;61.56;101226.47;4853483;29;20068;-74
2021/04/08 02:27:15;;;;;;;6.28;2.20;;;;;;;4.01;61.02;101225.66;4849274;29;20041;-75
2021/04/08 02:29:44;;;;;;;;;;;;;;;4.16;60.47;101221.94;4855151;29;20483;-75
2021/04/08 02:32:22;;;;;;;3.63;2.58;;;;;;;4.01;60.11;101197.75;4871554;29;19979;-76
2021/04/08 02:35:06;;;;;;;;;;;;;;;;;;;;;
2021/04/08 02:37:43;;;;;;;5.70;2.28;;;;;;;4.24;60.11;101229.91;4878705;29;20039;-76
2021/04/08 02:40:15;;;;;;;5.32;1.65;;;;;;;4.19;59.97;101218.81;4842861;29;20056;-75
2021/04/08 02:42:50;;;;;;;2.25;1.88;;;;;;;4.11;59.91;101191.97;4850955;29;20034;-76
2021/04/08 02:45:16;;;;;;;3.53;1.98;;;;;;;4.24;60.07;101210.94;4874384;29;20044;-78
2021/04/08 02:50:54;;;;;;;3.60;2.25;;;;;;;4.18;59.91;101198.22;4845593;29;20034;-78
2021/04/08 02:53:50;;;;;;;5.55;2.85;;;;;;;4.20;59.59;101198.84;4863496;29;20029;-75
2021/04/08 02:56:56;;;;;;;5.13;2.97;;;;;;;4.29;60.09;101222.00;4877922;29;20449;-75
2021/04/08 03:00:01;;;;;;;;;;;;;;;;;;;;;
2021/04/08 03:02:40;;;;;;;3.90;2.28;;;;;;;4.21;59.61;101186.16;4873604;29;20488;-79
2021/04/08 03:05:14;;;;;;;2.97;2.60;;;;;;;4.32;60.07;101205.34;4876399;29;20093;-78
2021/04/08 03:08:13;;;;;;;6.43;1.70;;;;;;;4.39;60.00;101205.34;4864384;29;20496;-76
2021/04/08 03:10:50;;;;;;;1.55;1.45;;;;;;;4.29;59.31;101189.50;4880422;29;20077;-79
2021/04/08 03:13:20;;;;;;;2.05;1.13;;;;;;;4.35;59.02;101193.25;4870529;29;20022;-77
2021/04/08 03:15:55;;;;;;;4.28;1.75;;;;;;;4.35;59.56;101183.28;4865932;29;20035;-78
2021/04/08 03:18:34;;;;;;;1.20;1.10;;;;;;;4.40;58.70;101179.94;4880369;29;20025;-76
2021/04/08 03:21:11;;;;;;;;;;;;;;;;;;;;;
2021/04/08 03:23:52;;;;;;;;;;;;;;;;;;;;;
2021/04/08 03:26:28;;;;;;;;;;;;;;;;;;;;;
2021/04/08 03:29:05;;;;;;;;;;;;;;;;;;;;;
2021/04/08 03:31:41;;;;;;;2.70;1.20;;;;;;;4.37;59.30;101174.94;4873692;29;20028;-78
2021/04/08 03:34:17;;;;;;;2.13;1.92;;;;;;;4.25;59.38;101155.75;4866173;29;20111;-75
2021/04/08 03:37:05;;;;;;;;;;;;;;;;;;;;;
2021/04/08 03:39:31;;;;;;;1.08;0.98;;;;;;;4.35;59.39;101185.13;4874573;29;20440;-77
2021/04/08 03:42:07;;;;;;;;;;;;;;;;;;;;;
2021/04/08 03:44:50;;;;;;;1.13;1.02;;;;;;;4.35;60.02;101191.41;4853277;29;20067;-78
2021/04/08 03:47:26;;;;;;;;;;;;;;;;;;;;;
2021/04/08 03:49:53;;;;;;;1.25;0.88;;;;;;;4.25;59.47;101165.75;4871778;29;20035;-77
2021/04/08 03:52:22;;;;;;;1.30;1.20;;;;;;;4.22;59.74;101148.06;4854882;29;20036;-76
2021/04/08 03:54:52;;;;;;;1.20;1.20;;;;;;;4.41;59.52;101170.78;4875289;29;20057;-77
2021/04/08 03:57:32;;;;;;;2.17;1.48;;;;;;;4.28;59.46;101132.84;4851086;29;20037;-78
2021/04/08 04:00:01;;;;;;;4.00;1.60;;;;;;;4.33;59.88;101146.59;4863608;29;20041;-77
2021/04/08 04:02:27;;;;;;;1.02;0.60;;;;;;;4.32;58.87;101145.78;4875373;29;20057;-76
2021/04/08 04:05:04;;;;;;;0.63;0.60;;;;;;;4.38;59.44;101138.69;4853080;29;20432;-76
2021/04/08 04:07:35;;;;;;;0.82;0.82;;;;;;;4.33;58.95;101128.47;4859866;29;20472;-74
2021/04/08 04:10:31;;;;;;;10.27;2.03;;;;;;;4.39;58.78;101134.94;4877404;29;20086;-78
2021/04/08 04:13:05;;;;;;;6.07;2.10;;;;;;;4.32;59.10;101117.84;4850718;29;20040;-79
2021/04/08 04:15:35;;;;;;;1.50;1.40;;;;;;;4.41;59.96;101143.69;4880344;29;20120;-74
2021/04/08 04:18:12;;;;;;;1.27;1.15;;;;;;;4.41;59.01;101140.13;4879524;29;20025;-75
2021/04/08 04:20:56;;;;;;;1.40;0.80;;;;;;;4.42;59.96;101133.69;4861523;29;20033;-76
2021/04/08 04:23:22;;;;;;;1.65;1.42;;;;;;;4.39;59.64;101134.09;4870990;29;20029;-76
2021/04/08 04:25:50;;;;;;;0.70;0.70;;;;;;;4.34;59.43;101124.72;4871756;29;20033;-74
2021/04/08 04:28:15;;;;;;;1.80;0.90;;;;;;;4.53;58.85;101147.44;4881854;29;20033;-75
2021/04/08 04:30:41;;;;;;;0.75;0.75;;;;;;;4.58;59.53;101146.81;4882883;29;20024;-73
2021/04/08 04:33:06;;;;;;;1.83;1.73;;;;;;;4.58;58.94;101135.16;4879445;29;20021;-75
2021/04/08 04:35:32;;;;;;;1.38;1.27;;;;;;;4.59;59.56;101137.66;4880526;29;20033;-78
2021/04/08 04:37:57;;;;;;;2.33;1.50;;;;;;;4.59;59.07;101134.94;4862683;29;20018;-76
2021/04/08 04:40:26;;;;;;;3.70;1.10;;;;;;;4.64;59.45;101137.84;4862097;29;20038;-75
2021/04/08 04:42:51;;;;;;;8.30;0.98;;;;;;;4.58;60.05;101125.13;4867019;29;20081;-74
2021/04/08 04:45:17;;;;;;;5.25;1.00;;;;;;;4.56;59.66;101129.94;4875362;29;20519;-74
2021/04/08 04:47:43;;;;;;;1.35;1.25;;;;;;;4.65;59.32;101134.09;4863178;29;20025;-74
2021/04/08 04:50:10;;;;;;;0.82;0.70;;;;;;;4.69;59.67;101140.78;4864515;29;20467;-74
2021/04/08 04:52:41;;;;;;;0.82;0.82;;;;;;;4.72;59.68;101139.53;4876264;29;20040;-73
2021/04/08 04:55:08;;;;;;;3.75;1.42;;;;;;;4.71;59.22;101133.25;4878736;29;20068;-74
2021/04/08 04:57:33;;;;;;;1.48;1.20;;;;;;;4.77;59.56;101136.19;4877748;29;20036;-74
2021/04/08 05:00:01;;;;;;;2.50;1.73;;;;;;;4.72;59.33;101134.94;4863066;29;20069;-74
2021/04/08 05:02:29;;;;;;;3.90;2.03;;;;;;;4.72;59.30;101129.50;4857151;29;20025;-74
2021/04/08 05:04:54;;;;;;;1.75;1.65;;;;;;;4.57;60.11;101118.06;4875155;29;20356;-74
2021/04/08 05:07:20;;;;;;;2.75;1.85;;;;;;;4.59;59.43;101124.09;4865307;29;20032;-73
2021/04/08 05:09:45;;;;;;;1.58;1.33;;;;;;;4.47;60.37;101114.97;4860510;29;20397;-75
2021/04/08 05:12:11;;;;;;;3.45;1.75;;;;;;;4.43;60.55;101119.13;4879205;29;20040;-76
2021/04/08 05:14:37;;;;;;;2.95;1.27;;;;;;;4.42;60.58;101133.69;4862130;29;20048;-73
2021/04/08 05:17:02;;;;;;;0.90;0.90;;;;;;;4.38;60.39;101125.16;4853397;29;20032;-76
2021/04/08 05:19:28;;;;;;;0.40;0.40;;;;;;;4.43;60.01;101141.59;4847071;29;20036;-75
2021/04/08 05:21:53;;;;;;;1.05;0.60;;;;;;;4.51;59.84;101143.25;4841648;29;20049;-76
2021/04/08 05:24:38;;;;;;;;;;;;;;;;;;;;;
2021/04/08 05:27:06;;;;;;;0.50;0.50;;;;;;;4.67;60.07;101132.03;4880240;29;20032;-75
2021/04/08 05:29:32;;;;;;;3.20;0.73;;;;;;;4.71;60.15;101122.41;4861966;29;20327;-75
2021/04/08 05:31:57;;;;;;;4.30;1.52;;;;;;;4.75;59.49;101127.44;4859833;29;20053;-75
2021/04/08 05:34:23;;;;;;;1.88;1.67;;;;;;;4.74;59.31;101120.34;4882750;29;20056;-74
2021/04/08 05:36:48;;;;;;;1.75;1.65;;;;;;;4.68;59.91;101109.28;4864153;29;20511;-74
2021/04/08 05:39:14;;;;;;;4.68;1.35;;;;;;;4.72;60.19;101113.25;4861014;29;20029;-78
2021/04/08 05:41:39;;;;;;;5.60;1.55;;;;;;;4.70;59.62;101123.47;4880400;29;20036;-75
2021/04/08 05:44:07;;;;;;;1.55;1.38;;;;;;;4.68;59.58;101117.41;4881170;29;20468;-75
2021/04/08 05:46:33;;;;;;;3.05;1.10;;;;;;;4.71;59.99;101114.28;4858755;29;20034;-75
2021/04/08 05:48:58;;;;;;;5.00;1.42;;;;;;;4.69;60.05;101113.69;4879661;29;20034;-76
2021/04/08 05:51:24;;;;;;;2.75;1.42;;;;;;;4.73;59.98;101114.06;4850809;29;20025;-75
2021/04/08 05:53:49;;;;;;;2.80;1.73;;;;;;;4.81;59.48;101110.34;4863660;29;20035;-75
2021/04/08 05:56:15;;;;;;;6.68;1.67;;;;;;;4.76;59.34;101112.81;4889438;29;20052;-75
2021/04/08 05:58:40;;;;;;;3.72;2.05;;;;;;;4.89;59.16;101118.22;4874118;29;20137;-74
2021/04/08 06:01:06;;;;;;;2.88;0.68;;;;;;;4.96;58.87;101119.03;4873583;29;20072;-74
2021/04/08 06:03:37;;;;;;;0.68;0.68;;;;;;;4.98;59.18;101110.69;4888490;29;20097;-76
2021/04/08 06:06:03;;;;;;;1.65;1.00;;;;;;;5.03;59.17;101119.88;4895333;29;20029;-74
2021/04/08 06:08:29;;;;;;;5.00;1.10;;;;;;;5.15;58.97;101124.63;4880014;29;20801;-75
2021/04/08 06:10:55;;;;;;;2.08;1.48;;;;;;;5.19;58.27;101123.16;4884548;29;20037;-75
2021/04/08 06:13:21;;;;;;;1.80;1.50;;;;;;;5.21;58.94;101118.34;4881659;29;20329;-75
2021/04/08 06:15:46;;;;;;;1.88;1.77;;;;;;;5.16;58.67;101101.91;4885635;29;20040;-76
2021/04/08 06:18:12;;;;;;;3.00;1.45;;;;;;;5.17;58.54;101114.41;4854027;29;20058;-77
2021/04/08 06:20:40;;;;;;;1.17;1.05;;;;;;;5.11;58.85;101107.13;4862468;29;20446;-76
2021/04/08 06:23:06;;;;;;;2.50;1.48;;;;;;;5.14;58.55;101115.69;4844345;29;20040;-74
2021/04/08 06:25:42;;;;;;;8.30;1.40;;;;;;;5.20;58.79;101114.00;4852952;29;20026;-77
2021/04/08 06:28:10;;;;;;;2.42;1.25;;;;;;;5.27;58.93;101113.97;4862103;29;20476;-75
2021/04/08 06:30:37;;;;;;;1.17;1.00;;;;;;;5.27;58.41;101114.81;4863341;29;20057;-75
2021/04/08 06:33:03;;;;;;;2.78;1.23;;;;;;;5.39;58.29;101114.97;4858083;29;20037;-78
2021/04/08 06:35:28;;;;;;;7.60;1.13;;;;;;;5.48;58.52;101124.53;4852273;29;20369;-77
2021/04/08 06:37:54;;;;;;;3.40;0.88;;;;;;;5.53;58.07;101113.03;4877083;29;20061;-74
2021/04/08 06:40:40;;;;;;;;;;;;;;;;;;;;;
2021/04/08 06:43:09;;;;;;;3.10;1.10;;;;;;;5.73;57.34;101121.91;4875511;29;20043;-78
2021/04/08 06:45:38;;;;;;;3.25;0.50;;;;;;;5.81;57.22;101119.97;4875790;29;20029;-80
2021/04/08 06:48:34;;;;;;;4.53;0.68;;;;;;;5.93;57.15;101116.38;4862184;29;20053;-80
2021/04/08 06:51:00;;;;;;;0.60;0.57;;;;;;;5.92;56.20;101103.00;4877938;29;20060;-76
2021/04/08 06:53:47;;;;;;;;;;;;;;;;;;;;;
2021/04/08 06:56:17;;;;;;;3.13;0.70;;;;;;;6.18;56.39;101106.66;4886604;29;20068;-78
2021/04/08 06:58:43;;;;;;;6.18;0.63;;;;;;;6.21;55.89;101096.16;4877499;29;20025;-77
2021/04/08 07:01:10;;;;;;;4.78;0.60;;;;;;;6.37;55.89;101113.78;4881086;29;20031;-80
2021/04/08 07:03:36;;;;;;;3.00;0.68;;;;;;;6.41;55.20;101109.59;4867795;29;20028;-76
2021/04/08 07:06:28;;;;;;;1.45;0.63;;;;;;;6.60;55.53;101117.78;4890102;29;20061;-80
2021/04/08 07:08:55;;;;;;;0.40;0.28;;;;;;;6.58;54.80;101098.16;4860997;29;20040;-78
2021/04/08 07:11:52;;;;;;;0.82;0.45;;;;;;;6.81;54.74;101109.22;4890746;29;20028;-80
2021/04/08 07:14:40;;;;;;;0.68;0.40;;;;;;;7.10;55.03;101133.22;4860517;29;20404;-79
2021/04/08 07:17:10;;;;;;;0.50;0.32;;;;;;;7.22;54.39;101138.72;4889218;29;20032;-78
2021/04/08 07:19:47;;;;;;;;;;;;;;;;;;;;;
2021/04/08 07:22:32;;;;;;;1.67;0.52;;;;;;;7.30;53.74;101122.09;4884974;29;20113;-78
2021/04/08 07:25:08;;;;;;;;;;;;;;;;;;;;;
2021/04/08 07:27:45;;;;;;;0.75;0.57;;;;;;;7.58;53.41;101123.44;4882931;29;20097;-79
2021/04/08 07:30:11;;;;;;;1.08;0.40;;;;;;;7.55;53.21;101097.53;4884415;29;20093;-80
2021/04/08 07:33:07;;;;;;;;;;;;;;;;;;;;;
2021/04/08 07:35:41;;;;;;;3.05;0.30;;;;;;;8.06;52.68;101130.75;4868707;29;20139;-79
2021/04/08 07:38:07;;;;;;;1.15;0.63;;;;;;;8.16;52.37;101131.03;4875264;29;20040;-78
2021/04/08 07:41:19;;;;;;;0.73;0.38;;;;;;;8.31;51.80;101127.00;4880521;29;20037;-77
2021/04/08 07:44:07;;;;;;;;;;;;;;;;;;;;;
2021/04/08 07:46:58;;;;;;;;;;;;;;;;;;;;;
2021/04/08 07:49:45;;;;;;;5.38;0.45;;;;;;;8.76;50.42;101121.06;4870345;29;20085;-77
2021/04/08 07:52:37;;;;;;;1.05;0.35;;;;;;;8.80;50.07;101119.50;4877364;29;20502;-77
2021/04/08 07:55:23;;;;;;;2.17;0.98;;;;;;;8.88;49.23;101116.44;4868545;29;20037;-78
2021/04/08 07:58:25;;;;;;;2.65;0.30;;;;;;;9.08;48.62;101115.22;4873526;29;20037;-77
2021/04/08 08:00:53;;;;;;;2.20;0.20;;;;;;;9.09;49.02;101123.16;4876076;29;20068;-77
2021/04/08 08:03:36;;;;;;;1.25;0.40;;;;;;;9.01;48.17;101114.50;4844712;29;20051;-77
2021/04/08 08:06:03;;;;;;;0.35;0.20;;;;;;;8.96;47.83;101106.22;4866148;29;20047;-76
2021/04/08 08:12:17;;;;;;;;;;;;;;;;;;;;;
2021/04/08 08:17:39;;;;;;;;;;;;;;;9.65;47.69;101119.13;4867416;29;20485;-80
2021/04/08 08:23:24;;;;;;;;;;;;;;;;;;;;;
2021/04/08 08:26:18;;;;;;;3.08;0.22;;;;;;;9.82;47.34;101116.47;4873833;29;20144;-80
2021/04/08 08:29:16;;;;;;;0.93;0.30;;;;;;;10.06;46.71;101111.69;4861175;29;20120;-82
2021/04/08 08:32:28;;;;;;;3.30;0.55;;;;;;;10.34;45.75;101110.03;4868060;29;20384;-79
2021/04/08 08:35:12;;;;;;;7.65;0.52;;;;;;;10.68;46.13;101104.56;4863637;29;20072;-80
2021/04/08 08:37:59;;;;;;;;;;;;;;;;;;;;;
2021/04/08 08:40:25;;;;;;;0.90;0.40;;;;;;;11.13;45.16;101107.13;4867848;29;20036;-80
2021/04/08 08:43:19;;;;;;;;;;;;;;;;;;;;;
2021/04/08 08:46:10;;;;;;;1.55;0.30;;;;;;;11.90;44.53;101082.56;4882178;29;20195;-79
2021/04/08 08:48:45;;;;;;;1.00;0.50;;;;;;;12.26;43.86;101091.13;4839930;29;20046;-79
2021/04/08 08:51:40;;;;;;;0.33;0.30;;;;;;;12.65;43.67;101081.84;4820655;29;20040;-80
2021/04/08 08:54:11;;;;;;;0.60;0.45;;;;;;;13.31;42.65;101075.88;4859097;29;20037;-79
2021/04/08 08:56:40;;;;;;;1.10;0.70;;;;;;;14.02;41.29;101093.72;4881362;29;20097;-81
2021/04/08 08:59:32;;;;;;;0.30;0.30;;;;;;;14.99;40.19;101078.25;4858888;29;20428;-80
2021/04/08 09:02:27;;;;;;;1.05;0.60;;;;;;;15.47;38.21;101088.81;4869111;29;20041;-80
2021/04/08 09:05:01;;;;;;;1.90;0.63;;;;;;;15.88;36.77;101088.63;4883820;29;20131;-80
2021/04/08 09:07:26;;;;;;;0.80;0.65;;;;;;;15.74;36.25;101088.41;4866741;29;20036;-79
2021/04/08 09:10:03;;;;;;;3.10;0.50;;;;;;;15.90;36.93;101085.56;4871597;29;20037;-82
2021/04/08 09:12:53;;;;;;;1.33;0.70;;;;;;;16.51;37.18;101106.38;4887275;29;20031;-80
2021/04/08 09:15:19;;;;;;;0.40;0.30;;;;;;;16.85;35.84;101089.75;4868884;29;20047;-79
2021/04/08 09:18:45;;;;;;;0.90;0.60;;;;;;;17.66;35.14;101102.09;4886154;29;20029;-82
2021/04/08 09:25:10;;;;;;;0.60;0.30;;;;;;;17.69;33.49;101090.44;4874809;29;20097;-81
2021/04/08 09:28:07;;;;;;;4.85;0.30;;;;;;;17.16;33.33;101066.53;4856309;29;20044;-80
2021/04/08 09:36:53;;;;;;;0.30;0.30;;;;;;;17.85;32.98;101089.09;4870847;29;20041;-82
2021/04/08 09:40:16;;;;;;;;;;;;;;;;;;;;;
2021/04/08 09:50:29;;;;;;;;;;;;;;;;;;;;;
2021/04/08 09:53:39;;;;;;;;;;;;;;;;;;;;;
2021/04/08 09:56:13;;;;;;;1.05;0.40;;;;;;;19.42;30.84;101070.28;4779014;30;20142;-84
2021/04/08 09:59:46;;;;;;;0.70;0.30;;;;;;;20.01;28.34;101073.97;4781602;29;20088;-82
2021/04/08 10:02:04;;;;;;;1.08;0.20;;;;;;;20.50;28.75;101084.44;4758744;30;20044;-80
2021/04/08 10:05:18;;;;;;;;;;;;;;;;;;;;;
2021/04/08 10:08:39;;;;;;;0.70;0.70;;;;;;;20.44;28.66;101085.69;4760542;30;20606;-82
2021/04/08 10:11:04;;;;;;;0.55;0.22;;;;;;;19.33;28.81;101059.94;4708735;30;20041;-80
2021/04/08 10:14:09;;;;;;;0.40;0.25;;;;;;;18.24;30.37;101062.25;4811060;29;20072;-81
2021/04/08 10:17:04;;;;;;;0.20;0.20;;;;;;;17.24;32.33;101074.97;4816136;29;20533;-84
2021/04/08 10:19:58;;;;;;;0.40;0.20;;;;;;;16.50;33.40;101069.66;4807251;29;20034;-84
2021/04/08 10:26:52;;;;;;;0.38;0.20;;;;;;;17.27;33.83;101030.16;4832762;29;20037;-78
2021/04/08 10:29:35;;;;;;;0.37;0.20;;;;;;;17.37;33.43;101047.72;4860705;29;20045;-79
2021/04/08 10:32:28;;;;;;;1.50;0.30;;;;;;;17.73;33.33;101052.75;4888318;29;20043;-80
2021/04/08 10:35:06;;;;;;;;;;;;;;;;;;;;;
2021/04/08 10:37:55;;;;;;;3.10;0.38;;;;;;;19.67;31.28;101027.31;4864286;29;20104;-81
2021/04/08 10:40:21;;;;;;;0.60;0.40;;;;;;;21.23;29.17;101050.75;4864918;29;20048;-78
2021/04/08 10:43:15;;;;;;;0.82;0.20;;;;;;;20.82;27.84;101052.78;4870113;29;20432;-79
2021/04/08 10:46:19;;;;;;;0.40;0.20;;;;;;;20.82;29.24;101046.38;4873552;29;20136;-81
2021/04/08 10:49:44;;;;;;;;;;;;;;;;;;;;;
2021/04/08 10:52:40;;;;;;;0.10;0.10;;;;;;;19.67;28.50;101024.53;4888260;29;20068;-79
2021/04/08 10:55:36;;;;;;;0.47;0.30;;;;;;;18.84;30.52;101036.50;4882205;29;20066;-82
2021/04/08 10:58:55;;;;;;;;;;;;;;;;;;;;;
2021/04/08 11:02:03;;;;;;;;;;;;;;;;;;;;;
2021/04/08 11:04:57;;;;;;;0.65;0.25;;;;;;;20.32;29.00;101020.44;4897331;29;20052;-82
2021/04/08 11:07:59;;;;;;;;;;;;;;;;;;;;;
2021/04/08 11:10:39;;;;;;;0.22;0.20;;;;;;;19.29;29.80;101014.53;4889240;29;20073;-82
2021/04/08 11:13:14;;;;;;;4.95;0.20;;;;;;;19.47;30.05;101003.63;4889421;29;20021;-82
2021/04/08 11:15:46;;;;;;;0.17;0.10;;;;;;;19.17;30.33;101000.38;4871901;29;20030;-82
2021/04/08 11:18:20;;;;;;;0.10;0.10;;;;;;;19.18;30.63;101002.03;4866359;29;20351;-82
2021/04/08 11:21:13;;;;;;;0.60;0.40;;;;;;;18.70;30.94;100996.91;4886231;29;20029;-81
2021/04/08 11:24:14;;;;;;;;;;;;;;;;;;;;;
2021/04/08 11:26:53;;;;;;;0.22;0.22;;;;;;;18.91;31.18;101009.25;4882337;29;20234;-79
2021/04/08 11:29:28;;;;;;;0.95;0.65;;;;;;;18.57;31.92;101015.94;4879865;29;20057;-79
2021/04/08 11:32:04;;;;;;;0.40;0.30;;;;;;;17.74;33.04;101010.13;4864320;29;20028;-79
2021/04/08 11:34:57;;;;;;;1.08;0.40;;;;;;;17.12;34.37;101005.47;4855585;29;20073;-79
2021/04/08 11:37:33;;;;;;;0.75;0.20;;;;;;;16.75;35.17;101001.50;4862636;29;20114;-79
2021/04/08 11:40:00;;;;;;;0.38;0.30;;;;;;;16.27;35.79;101004.19;4881997;29;20504;-78
2021/04/08 11:42:38;;;;;;;0.20;0.20;;;;;;;16.08;36.74;100993.88;4865149;29;20040;-82
2021/04/08 11:45:21;;;;;;;0.63;0.40;;;;;;;15.99;36.92;100993.66;4858241;29;20052;-79
2021/04/08 11:48:18;;;;;;;0.77;0.20;;;;;;;16.26;37.62;100977.72;4883718;29;20048;-83
2021/04/08 11:51:05;;;;;;;3.05;0.40;;;;;;;16.50;35.82;100978.56;4879424;29;20037;-81
2021/04/08 11:53:56;;;;;;;;;;;;;;;;;;;;;
2021/04/08 11:56:40;;;;;;;1.00;0.28;;;;;;;16.41;36.29;100974.78;4880390;29;20128;-82
2021/04/08 11:59:38;;;;;;;0.95;0.30;;;;;;;16.51;36.24;100980.19;4862125;29;20022;-80
2021/04/08 12:02:19;;;;;;;;;;;;;;;;;;;;;
2021/04/08 12:04:55;;;;;;;0.47;0.30;;;;;;;15.73;37.78;100970.16;4876420;29;20037;-79
2021/04/08 12:08:17;;;;;;;1.15;0.50;;;;;;;15.66;37.56;100965.75;4874666;29;20036;-81
2021/04/08 12:10:45;;;;;;;;;;;;;;;;;;;;;
2021/04/08 12:20:20;;;;;;;0.25;0.10;;;;;;;21.15;32.38;100965.38;4771626;30;20039;-81
2021/04/08 12:23:12;;;;;;;0.20;0.20;;;;;;;22.84;28.35;100945.75;4862321;29;20041;-80
2021/04/08 12:25:56;;;;;;;1.98;0.52;;;;;;;23.11;26.37;100938.06;4859590;29;20100;-81
2021/04/08 12:29:02;;;;;;;1.60;0.30;;;;;;;23.84;25.54;100967.50;4870829;29;20078;-80
2021/04/08 12:32:01;;;;;;;;;;;;;;;;;;;;;
2021/04/08 12:34:27;;;;;;;0.98;0.20;;;;;;;25.40;22.77;100954.72;4876230;29;20136;-83
2021/04/08 12:36:53;;;;;;;0.90;0.60;;;;;;;24.16;23.45;100942.72;4880388;29;20433;-82
2021/04/08 12:39:50;;;;;;;0.52;0.40;;;;;;;22.08;25.42;100941.78;4861747;29;20412;-79
2021/04/08 12:42:25;;;;;;;2.72;2.22;;;;;;;20.18;28.13;100919.75;4866046;29;20065;-82
2021/04/08 12:54:57;;;;;;;0.65;0.38;;;;;;;18.54;31.61;100930.72;4820161;29;20042;-76
2021/04/08 12:57:31;;;;;;;0.52;0.43;;;;;;;17.51;32.72;100896.56;4871976;29;20523;-74
2021/04/08 12:59:56;;;;;;;1.70;0.32;;;;;;;17.00;33.97;100900.13;4843212;29;20058;-76
2021/04/08 13:02:22;;;;;;;1.45;0.50;;;;;;;16.91;33.93;100899.97;4879400;29;20034;-75
2021/04/08 13:04:52;;;;;;;2.22;0.50;;;;;;;16.77;34.27;100888.78;4881565;29;20519;-76
2021/04/08 13:07:18;;;;;;;1.38;0.50;;;;;;;16.50;34.97;100889.38;4863728;29;20134;-76
2021/04/08 13:09:44;;;;;;;0.93;0.40;;;;;;;16.32;35.09;100894.56;4887305;29;20028;-74
2021/04/08 13:12:09;;;;;;;0.65;0.30;;;;;;;16.01;35.17;100888.56;4877977;29;20029;-79
2021/04/08 13:14:38;;;;;;;1.02;0.22;;;;;;;15.88;36.19;100906.59;4859279;29;20394;-77
2021/04/08 13:17:06;;;;;;;2.63;0.30;;;;;;;15.73;35.63;100892.94;4860720;29;20064;-76
2021/04/08 13:19:41;;;;;;;3.00;0.40;;;;;;;15.78;36.46;100896.47;4832167;29;20071;-77
2021/04/08 13:22:17;;;;;;;2.60;0.40;;;;;;;15.79;36.54;100889.88;4869195;29;20040;-75
2021/04/08 13:24:45;;;;;;;7.90;0.40;;;;;;;15.69;36.61;100865.94;4847363;29;20445;-74
2021/04/08 13:27:12;;;;;;;0.65;0.43;;;;;;;15.85;36.97;100871.34;4875373;29;20059;-74
2021/04/08 13:29:38;;;;;;;0.93;0.20;;;;;;;15.98;36.96;100869.84;4861632;29;20030;-75
2021/04/08 13:32:07;;;;;;;1.17;0.35;;;;;;;16.66;36.79;100865.16;4863855;29;20036;-76
2021/04/08 13:34:34;;;;;;;2.03;0.70;;;;;;;18.41;34.84;100870.63;4844138;29;20063;-77
2021/04/08 13:37:06;;;;;;;0.35;0.30;;;;;;;19.01;31.71;100853.00;4881102;29;20641;-77
2021/04/08 13:39:34;;;;;;;0.60;0.20;;;;;;;18.61;31.53;100858.31;4878882;29;20044;-76
2021/04/08 13:42:10;;;;;;;0.30;0.10;;;;;;;18.10;32.38;100852.66;4856830;29;20023;-77
2021/04/08 13:44:50;;;;;;;1.70;0.40;;;;;;;17.58;32.92;100835.34;4871852;29;20029;-80
2021/04/08 13:47:16;;;;;;;0.38;0.17;;;;;;;17.59;33.31;100837.78;4865981;29;20061;-76
2021/04/08 13:49:48;;;;;;;1.08;0.22;;;;;;;17.66;32.59;100853.19;4873224;29;20037;-77
2021/04/08 13:52:23;;;;;;;0.65;0.32;;;;;;;17.59;31.81;100826.75;4848359;29;20428;-78
2021/04/08 13:54:52;;;;;;;0.40;0.40;;;;;;;17.50;31.92;100834.09;4844670;29;20483;-79
2021/04/08 13:57:20;;;;;;;1.75;0.28;;;;;;;17.07;32.11;100826.78;4857287;29;20064;-77
2021/04/08 14:02:57;;;;;;;2.45;0.20;;;;;;;16.32;33.90;100808.19;4854461;29;20041;-77
2021/04/08 14:05:31;;;;;;;0.73;0.30;;;;;;;15.92;35.31;100808.41;4840509;29;20037;-76
2021/04/08 14:07:56;;;;;;;0.63;0.20;;;;;;;15.63;35.88;100819.41;4872211;29;20895;-77
2021/04/08 14:10:25;;;;;;;1.05;0.20;;;;;;;15.34;36.72;100803.69;4856317;29;20047;-77
2021/04/08 14:12:53;;;;;;;0.35;0.20;;;;;;;15.16;37.67;100808.78;4866990;29;20033;-77